createdAt,value
2018-02-11T00:00:33.924Z,0
2018-02-11T00:01:34.189Z,0
2018-02-11T00:02:34.473Z,0
2018-02-11T00:03:33.964Z,0
2018-02-11T00:04:33.988Z,0
2018-02-11T00:05:34.242Z,0
2018-02-11T00:06:34.255Z,0
2018-02-11T00:07:34.013Z,0
2018-02-11T00:08:34.278Z,0
2018-02-11T00:09:48.961Z,0
2018-02-11T00:10:34.302Z,0
2018-02-11T00:11:34.130Z,0
2018-02-11T00:12:34.103Z,0
2018-02-11T00:13:34.600Z,0
2018-02-11T00:14:34.638Z,0
2018-02-11T00:15:34.369Z,0
2018-02-11T00:16:34.382Z,0
2018-02-11T00:17:34.412Z,0
2018-02-11T00:18:34.202Z,0
2018-02-11T00:19:33.917Z,0
2018-02-11T00:20:33.931Z,0
2018-02-11T00:21:33.941Z,0
2018-02-11T00:22:34.208Z,0
2018-02-11T00:23:34.471Z,0
2018-02-11T00:24:33.978Z,0
2018-02-11T00:25:34.500Z,0
2018-02-11T00:26:34.274Z,0
2018-02-11T00:27:34.527Z,0
2018-02-11T00:28:34.541Z,0
2018-02-11T00:29:34.397Z,0
2018-02-11T00:30:34.317Z,0
2018-02-11T00:31:34.323Z,0
2018-02-11T00:32:34.338Z,0
2018-02-11T00:33:34.108Z,0
2018-02-11T00:34:34.615Z,0
2018-02-11T00:35:34.876Z,0
2018-02-11T00:36:34.682Z,0
2018-02-11T00:37:34.658Z,0
2018-02-11T00:38:34.670Z,0
2018-02-11T00:39:34.929Z,0
2018-02-11T00:40:34.696Z,0
2018-02-11T00:41:34.463Z,0
2018-02-11T00:42:34.734Z,0
2018-02-11T00:43:34.975Z,0
2018-02-11T00:44:34.739Z,0
2018-02-11T00:45:34.516Z,0
2018-02-11T00:46:34.514Z,0
2018-02-11T00:47:34.541Z,0
2018-02-11T00:48:34.797Z,0
2018-02-11T00:49:34.803Z,0
2018-02-11T00:50:34.815Z,0
2018-02-11T00:51:34.593Z,0
2018-02-11T00:52:34.843Z,0
2018-02-11T00:53:34.852Z,0
2018-02-11T00:54:34.872Z,0
2018-02-11T00:55:35.130Z,0
2018-02-11T00:56:34.892Z,0
2018-02-11T00:57:34.900Z,0
2018-02-11T00:58:34.411Z,0
2018-02-11T00:59:34.677Z,0
2018-02-11T01:00:35.194Z,0
2018-02-11T01:01:34.958Z,0
2018-02-11T01:02:34.474Z,0
2018-02-11T01:03:34.981Z,0
2018-02-11T01:04:34.995Z,0
2018-02-11T01:05:35.008Z,0
2018-02-11T01:06:34.769Z,0
2018-02-11T01:07:34.783Z,0
2018-02-11T01:08:34.804Z,0
2018-02-11T01:09:34.809Z,0
2018-02-11T01:10:35.334Z,0
2018-02-11T01:11:34.842Z,0
2018-02-11T01:12:34.596Z,0
2018-02-11T01:13:34.659Z,0
2018-02-11T01:14:34.876Z,0
2018-02-11T01:15:35.132Z,0
2018-02-11T01:16:34.908Z,0
2018-02-11T01:17:35.161Z,0
2018-02-11T01:18:35.174Z,0
2018-02-11T01:19:34.956Z,0
2018-02-11T01:20:35.476Z,0
2018-02-11T01:21:35.012Z,0
2018-02-11T01:22:35.484Z,0
2018-02-11T01:23:35.247Z,0
2018-02-11T01:24:35.000Z,0
2018-02-11T01:25:35.292Z,0
2018-02-11T01:26:35.036Z,0
2018-02-11T01:27:35.047Z,0
2018-02-11T01:28:35.052Z,0
2018-02-11T01:29:35.565Z,0
2018-02-11T01:30:35.596Z,0
2018-02-11T01:31:35.081Z,0
2018-02-11T01:32:35.349Z,0
2018-02-11T01:33:35.601Z,0
2018-02-11T01:34:35.116Z,0
2018-02-11T01:35:34.891Z,0
2018-02-11T01:36:35.152Z,0
2018-02-11T01:37:35.427Z,0
2018-02-11T01:38:35.181Z,0
2018-02-11T01:39:35.450Z,0
2018-02-11T01:40:35.210Z,0
2018-02-11T01:41:35.730Z,0
2018-02-11T01:42:35.487Z,0
2018-02-11T01:43:35.518Z,0
2018-02-11T01:44:35.266Z,0
2018-02-11T01:45:35.270Z,0
2018-02-11T01:46:35.800Z,0
2018-02-11T01:47:35.295Z,0
2018-02-11T01:48:35.307Z,0
2018-02-11T01:49:35.074Z,0
2018-02-11T01:50:35.837Z,0
2018-02-11T01:51:35.604Z,0
2018-02-11T01:52:35.612Z,0
2018-02-11T01:53:35.135Z,0
2018-02-11T01:54:35.896Z,0
2018-02-11T01:55:35.404Z,0
2018-02-11T01:56:35.162Z,0
2018-02-11T01:57:35.932Z,0
2018-02-11T01:58:35.693Z,0
2018-02-11T01:59:35.710Z,0
2018-02-11T02:00:35.721Z,0
2018-02-11T02:01:35.473Z,0
2018-02-11T02:02:35.492Z,0
2018-02-11T02:03:36.014Z,0
2018-02-11T02:04:35.775Z,0
2018-02-11T02:05:35.527Z,0
2018-02-11T02:06:35.544Z,0
2018-02-11T02:07:35.803Z,0
2018-02-11T02:08:35.889Z,0
2018-02-11T02:09:36.085Z,0
2018-02-11T02:10:35.587Z,0
2018-02-11T02:11:35.354Z,0
2018-02-11T02:12:35.865Z,0
2018-02-11T02:13:35.892Z,0
2018-02-11T02:14:35.899Z,0
2018-02-11T02:15:35.901Z,0
2018-02-11T02:16:35.667Z,0
2018-02-11T02:17:36.180Z,0
2018-02-11T02:18:35.694Z,0
2018-02-11T02:19:35.701Z,0
2018-02-11T02:20:35.716Z,0
2018-02-11T02:21:35.735Z,0
2018-02-11T02:22:36.242Z,0
2018-02-11T02:23:35.764Z,0
2018-02-11T02:24:36.019Z,0
2018-02-11T02:25:36.284Z,0
2018-02-11T02:26:35.792Z,0
2018-02-11T02:27:36.303Z,0
2018-02-11T02:28:35.818Z,0
2018-02-11T02:29:36.081Z,0
2018-02-11T02:30:36.140Z,0
2018-02-11T02:31:36.104Z,0
2018-02-11T02:32:36.370Z,0
2018-02-11T02:33:36.390Z,0
2018-02-11T02:34:36.160Z,0
2018-02-11T02:35:36.159Z,0
2018-02-11T02:36:35.919Z,0
2018-02-11T02:37:36.449Z,0
2018-02-11T02:38:36.200Z,0
2018-02-11T02:39:36.476Z,0
2018-02-11T02:40:36.226Z,0
2018-02-11T02:41:35.984Z,0
2018-02-11T02:42:35.744Z,0
2018-02-11T02:43:36.004Z,0
2018-02-11T02:44:36.021Z,0
2018-02-11T02:45:36.038Z,0
2018-02-11T02:46:36.556Z,0
2018-02-11T02:47:36.329Z,0
2018-02-11T02:48:36.319Z,0
2018-02-11T02:49:36.342Z,0
2018-02-11T02:50:36.100Z,0
2018-02-11T02:51:36.107Z,0
2018-02-11T02:52:36.379Z,0
2018-02-11T02:53:36.389Z,0
2018-02-11T02:54:36.144Z,0
2018-02-11T02:55:36.413Z,0
2018-02-11T02:56:36.425Z,0
2018-02-11T02:57:36.439Z,0
2018-02-11T02:58:36.460Z,0
2018-02-11T02:59:36.480Z,0
2018-02-11T03:00:36.482Z,0
2018-02-11T03:01:35.987Z,0
2018-02-11T03:02:36.755Z,0
2018-02-11T03:03:36.265Z,0
2018-02-11T03:04:36.772Z,0
2018-02-11T03:05:36.539Z,0
2018-02-11T03:06:36.037Z,0
2018-02-11T03:07:36.559Z,0
2018-02-11T03:08:36.569Z,0
2018-02-11T03:09:36.077Z,0
2018-02-11T03:10:36.341Z,0
2018-02-11T03:11:36.609Z,0
2018-02-11T03:12:36.619Z,0
2018-02-11T03:13:36.878Z,0
2018-02-11T03:14:36.393Z,0
2018-02-11T03:15:36.958Z,0
2018-02-11T03:16:36.662Z,0
2018-02-11T03:17:36.922Z,0
2018-02-11T03:18:36.932Z,0
2018-02-11T03:19:36.441Z,0
2018-02-11T03:20:36.714Z,0
2018-02-11T03:21:36.718Z,0
2018-02-11T03:22:36.478Z,0
2018-02-11T03:23:36.502Z,0
2018-02-11T03:24:36.778Z,0
2018-02-11T03:25:36.829Z,0
2018-02-11T03:26:37.038Z,0
2018-02-11T03:27:36.814Z,0
2018-02-11T03:28:36.576Z,0
2018-02-11T03:29:37.101Z,0
2018-02-11T03:30:36.851Z,0
2018-02-11T03:31:37.118Z,0
2018-02-11T03:32:36.638Z,0
2018-02-11T03:33:36.623Z,0
2018-02-11T03:34:37.132Z,0
2018-02-11T03:35:37.150Z,0
2018-02-11T03:36:36.910Z,0
2018-02-11T03:37:36.675Z,0
2018-02-11T03:38:37.186Z,0
2018-02-11T03:39:36.953Z,0
2018-02-11T03:40:37.208Z,0
2018-02-11T03:41:36.974Z,0
2018-02-11T03:42:37.042Z,0
2018-02-11T03:43:36.998Z,0
2018-02-11T03:44:37.014Z,0
2018-02-11T03:45:37.019Z,0
2018-02-11T03:46:36.785Z,0
2018-02-11T03:47:37.045Z,0
2018-02-11T03:48:36.806Z,0
2018-02-11T03:49:37.077Z,0
2018-02-11T03:50:37.084Z,0
2018-02-11T03:51:37.094Z,0
2018-02-11T03:52:37.112Z,0
2018-02-11T03:53:37.388Z,0
2018-02-11T03:54:37.134Z,0
2018-02-11T03:55:36.891Z,0
2018-02-11T03:56:37.155Z,0
2018-02-11T03:57:36.934Z,0
2018-02-11T03:58:37.183Z,0
2018-02-11T03:59:37.197Z,0
2018-02-11T04:00:37.467Z,0
2018-02-11T04:01:36.715Z,0
2018-02-11T04:02:37.227Z,0
2018-02-11T04:03:37.494Z,0
2018-02-11T04:04:37.485Z,0
2018-02-11T04:05:37.029Z,0
2018-02-11T04:06:37.278Z,0
2018-02-11T04:07:37.293Z,0
2018-02-11T04:08:37.311Z,0
2018-02-11T04:09:37.322Z,0
2018-02-11T04:10:37.580Z,0
2018-02-11T04:11:37.093Z,0
2018-02-11T04:12:37.603Z,0
2018-02-11T04:13:37.373Z,0
2018-02-11T04:14:37.140Z,0
2018-02-11T04:15:37.140Z,0
2018-02-11T04:16:37.657Z,0
2018-02-11T04:17:37.170Z,0
2018-02-11T04:18:37.684Z,0
2018-02-11T04:19:37.696Z,0
2018-02-11T04:20:37.453Z,0
2018-02-11T04:21:36.965Z,0
2018-02-11T04:22:37.485Z,0
2018-02-11T04:23:37.741Z,0
2018-02-11T04:24:37.252Z,0
2018-02-11T04:25:37.266Z,0
2018-02-11T04:26:37.533Z,0
2018-02-11T04:27:37.566Z,0
2018-02-11T04:28:37.049Z,0
2018-02-11T04:29:37.570Z,0
2018-02-11T04:30:37.588Z,0
2018-02-11T04:31:37.597Z,0
2018-02-11T04:32:37.862Z,0
2018-02-11T04:33:37.617Z,0
2018-02-11T04:34:37.377Z,0
2018-02-11T04:35:37.393Z,0
2018-02-11T04:36:37.653Z,0
2018-02-11T04:37:37.666Z,0
2018-02-11T04:38:37.693Z,0
2018-02-11T04:39:37.440Z,0
2018-02-11T04:40:38.001Z,0
2018-02-11T04:41:37.990Z,0
2018-02-11T04:42:37.479Z,0
2018-02-11T04:43:38.013Z,0
2018-02-11T04:44:38.007Z,0
2018-02-11T04:45:37.511Z,0
2018-02-11T04:46:37.526Z,0
2018-02-11T04:47:38.059Z,0
2018-02-11T04:48:37.808Z,0
2018-02-11T04:49:37.824Z,0
2018-02-11T04:50:38.086Z,0
2018-02-11T04:51:38.093Z,0
2018-02-11T04:52:37.851Z,0
2018-02-11T04:53:37.864Z,0
2018-02-11T04:54:37.374Z,0
2018-02-11T04:55:37.386Z,0
2018-02-11T04:56:37.898Z,0
2018-02-11T04:57:37.915Z,0
2018-02-11T04:58:37.672Z,0
2018-02-11T04:59:37.445Z,0
2018-02-11T05:00:37.704Z,0
2018-02-11T05:01:38.218Z,0
2018-02-11T05:02:38.245Z,0
2018-02-11T05:03:37.992Z,0
2018-02-11T05:04:38.014Z,0
2018-02-11T05:05:38.010Z,0
2018-02-11T05:06:38.024Z,0
2018-02-11T05:07:38.049Z,0
2018-02-11T05:08:38.043Z,0
2018-02-11T05:09:38.058Z,0
2018-02-11T05:10:38.073Z,0
2018-02-11T05:11:38.391Z,0
2018-02-11T05:12:38.100Z,0
2018-02-11T05:13:37.865Z,0
2018-02-11T05:14:37.871Z,0
2018-02-11T05:15:38.416Z,0
2018-02-11T05:16:38.451Z,0
2018-02-11T05:17:37.902Z,0
2018-02-11T05:18:37.666Z,0
2018-02-11T05:19:38.176Z,0
2018-02-11T05:20:37.940Z,0
2018-02-11T05:21:37.949Z,0
2018-02-11T05:22:38.229Z,0
2018-02-11T05:23:38.039Z,0
2018-02-11T05:24:37.739Z,0
2018-02-11T05:25:38.248Z,0
2018-02-11T05:26:38.265Z,0
2018-02-11T05:27:38.025Z,0
2018-02-11T05:28:38.285Z,0
2018-02-11T05:29:38.050Z,0
2018-02-11T05:30:38.561Z,0
2018-02-11T05:31:38.323Z,0
2018-02-11T05:32:38.341Z,0
2018-02-11T05:33:38.352Z,0
2018-02-11T05:34:38.363Z,0
2018-02-11T05:35:38.631Z,0
2018-02-11T05:36:38.637Z,0
2018-02-11T05:37:38.654Z,0
2018-02-11T05:38:38.419Z,0
2018-02-11T05:39:38.167Z,0
2018-02-11T05:40:38.439Z,0
2018-02-11T05:41:38.194Z,0
2018-02-11T05:42:38.463Z,0
2018-02-11T05:43:38.721Z,0
2018-02-11T05:44:38.484Z,0
2018-02-11T05:45:37.988Z,0
2018-02-11T05:46:38.004Z,0
2018-02-11T05:47:38.263Z,0
2018-02-11T05:48:38.280Z,0
2018-02-11T05:49:38.293Z,0
2018-02-11T05:50:38.305Z,0
2018-02-11T05:51:38.311Z,0
2018-02-11T05:52:38.821Z,0
2018-02-11T05:53:38.837Z,0
2018-02-11T05:54:38.609Z,0
2018-02-11T05:55:38.368Z,0
2018-02-11T05:56:38.377Z,0
2018-02-11T05:57:38.642Z,0
2018-02-11T05:58:38.649Z,0
2018-02-11T05:59:38.961Z,4
2018-02-11T06:00:38.678Z,0
2018-02-11T06:01:38.446Z,4
2018-02-11T06:02:38.445Z,4
2018-02-11T06:03:38.712Z,4
2018-02-11T06:04:38.776Z,8
2018-02-11T06:05:38.731Z,8
2018-02-11T06:06:38.752Z,8
2018-02-11T06:07:38.507Z,12
2018-02-11T06:08:39.032Z,12
2018-02-11T06:09:38.780Z,16
2018-02-11T06:10:38.296Z,16
2018-02-11T06:11:38.554Z,20
2018-02-11T06:12:38.826Z,24
2018-02-11T06:13:38.833Z,32
2018-02-11T06:14:38.871Z,32
2018-02-11T06:15:38.854Z,44
2018-02-11T06:16:38.867Z,44
2018-02-11T06:17:38.877Z,56
2018-02-11T06:18:38.386Z,60
2018-02-11T06:19:39.155Z,76
2018-02-11T06:20:38.916Z,84
2018-02-11T06:21:38.674Z,92
2018-02-11T06:22:38.937Z,112
2018-02-11T06:23:39.021Z,124
2018-02-11T06:24:38.962Z,140
2018-02-11T06:25:39.220Z,152
2018-02-11T06:26:38.986Z,168
2018-02-11T06:27:39.250Z,188
2018-02-11T06:28:38.755Z,208
2018-02-11T06:29:38.519Z,228
2018-02-11T06:30:39.034Z,248
2018-02-11T06:31:38.810Z,272
2018-02-11T06:32:39.315Z,296
2018-02-11T06:33:38.570Z,320
2018-02-11T06:34:38.833Z,344
2018-02-11T06:35:39.094Z,376
2018-02-11T06:36:39.111Z,408
2018-02-11T06:37:38.869Z,440
2018-02-11T06:38:38.629Z,476
2018-02-11T06:39:39.146Z,516
2018-02-11T06:40:39.406Z,556
2018-02-11T06:41:39.160Z,592
2018-02-11T06:42:38.920Z,632
2018-02-11T06:43:39.185Z,672
2018-02-11T06:44:39.210Z,704
2018-02-11T06:45:39.459Z,740
2018-02-11T06:46:38.721Z,780
2018-02-11T06:47:39.485Z,816
2018-02-11T06:48:38.745Z,856
2018-02-11T06:49:39.005Z,904
2018-02-11T06:50:39.021Z,948
2018-02-11T06:51:39.654Z,988
2018-02-11T06:52:39.606Z,1024
2018-02-11T06:53:39.326Z,1056
2018-02-11T06:54:39.073Z,1088
2018-02-11T06:55:39.326Z,1128
2018-02-11T06:56:39.089Z,1168
2018-02-11T06:57:39.364Z,1204
2018-02-11T06:58:39.382Z,1236
2018-02-11T06:59:39.387Z,1272
2018-02-11T07:00:39.396Z,1308
2018-02-11T07:01:39.676Z,1356
2018-02-11T07:02:39.412Z,1416
2018-02-11T07:03:39.175Z,1472
2018-02-11T07:04:39.700Z,1516
2018-02-11T07:05:39.455Z,1552
2018-02-11T07:06:39.578Z,1588
2018-02-11T07:07:54.149Z,1636
2018-02-11T07:08:39.235Z,1648
2018-02-11T07:09:39.001Z,1664
2018-02-11T07:10:39.519Z,1676
2018-02-11T07:11:39.275Z,1684
2018-02-11T07:12:39.288Z,1668
2018-02-11T07:13:39.315Z,1692
2018-02-11T07:14:39.307Z,1708
2018-02-11T07:15:39.324Z,1736
2018-02-11T07:16:39.609Z,1816
2018-02-11T07:17:39.346Z,1916
2018-02-11T07:18:39.867Z,1996
2018-02-11T07:19:39.884Z,2100
2018-02-11T07:20:39.884Z,2200
2018-02-11T07:21:39.896Z,2296
2018-02-11T07:22:39.909Z,2384
2018-02-11T07:23:39.424Z,2476
2018-02-11T07:24:39.433Z,2560
2018-02-11T07:25:39.947Z,2660
2018-02-11T07:26:39.713Z,2768
2018-02-11T07:27:40.015Z,2852
2018-02-11T07:28:39.730Z,2904
2018-02-11T07:29:40.006Z,2932
2018-02-11T07:30:40.016Z,2980
2018-02-11T07:31:40.024Z,3080
2018-02-11T07:32:40.048Z,3088
2018-02-11T07:33:39.543Z,2888
2018-02-11T07:34:39.555Z,3004
2018-02-11T07:35:39.574Z,3284
2018-02-11T07:36:39.577Z,3684
2018-02-11T07:37:39.615Z,4028
2018-02-11T07:38:40.104Z,4304
2018-02-11T07:39:39.360Z,4528
2018-02-11T07:40:39.619Z,4772
2018-02-11T07:41:39.897Z,5152
2018-02-11T07:42:39.912Z,5464
2018-02-11T07:43:39.674Z,5696
2018-02-11T07:44:39.981Z,5884
2018-02-11T07:45:40.001Z,6044
2018-02-11T07:46:39.960Z,6196
2018-02-11T07:47:39.984Z,6344
2018-02-11T07:48:40.007Z,6448
2018-02-11T07:49:39.993Z,6552
2018-02-11T07:50:39.516Z,6624
2018-02-11T07:51:39.771Z,6692
2018-02-11T07:52:40.284Z,6724
2018-02-11T07:53:40.055Z,6768
2018-02-11T07:54:40.068Z,6824
2018-02-11T07:55:40.081Z,6840
2018-02-11T07:56:39.585Z,6832
2018-02-11T07:57:40.356Z,6800
2018-02-11T07:58:40.117Z,6776
2018-02-11T07:59:40.131Z,6744
2018-02-11T08:00:40.142Z,6676
2018-02-11T08:01:39.907Z,6596
2018-02-11T08:02:39.920Z,6452
2018-02-11T08:03:40.182Z,6200
2018-02-11T08:04:40.192Z,5888
2018-02-11T08:05:39.958Z,5676
2018-02-11T08:06:39.973Z,5600
2018-02-11T08:07:39.734Z,5612
2018-02-11T08:08:40.298Z,5612
2018-02-11T08:09:40.515Z,5556
2018-02-11T08:10:40.301Z,5500
2018-02-11T08:11:40.542Z,5464
2018-02-11T08:12:40.556Z,5260
2018-02-11T08:13:40.323Z,5200
2018-02-11T08:14:40.097Z,5248
2018-02-11T08:15:40.595Z,5444
2018-02-11T08:16:40.613Z,5576
2018-02-11T08:17:40.382Z,5612
2018-02-11T08:18:40.407Z,5472
2018-02-11T08:19:40.400Z,5504
2018-02-11T08:20:40.663Z,5576
2018-02-11T08:21:39.923Z,5664
2018-02-11T08:22:40.445Z,5768
2018-02-11T08:23:40.476Z,5880
2018-02-11T08:24:40.490Z,6008
2018-02-11T08:25:40.560Z,6132
2018-02-11T08:26:40.246Z,6380
2018-02-11T08:27:40.510Z,6792
2018-02-11T08:28:40.777Z,7348
2018-02-11T08:29:40.287Z,7540
2018-02-11T08:30:40.554Z,7516
2018-02-11T08:31:40.572Z,7284
2018-02-11T08:32:40.840Z,7244
2018-02-11T08:33:40.602Z,7176
2018-02-11T08:34:40.105Z,6852
2018-02-11T08:35:40.876Z,6676
2018-02-11T08:36:40.638Z,6476
2018-02-11T08:37:40.662Z,6316
2018-02-11T08:38:40.662Z,6336
2018-02-11T08:39:40.431Z,6216
2018-02-11T08:40:40.693Z,6092
2018-02-11T08:41:40.775Z,6116
2018-02-11T08:42:40.470Z,6220
2018-02-11T08:43:40.989Z,6328
2018-02-11T08:44:40.501Z,6392
2018-02-11T08:45:40.766Z,6376
2018-02-11T08:46:40.532Z,6296
2018-02-11T08:47:40.548Z,6224
2018-02-11T08:48:40.808Z,6196
2018-02-11T08:49:40.839Z,6212
2018-02-11T08:50:40.839Z,6236
2018-02-11T08:51:40.864Z,6252
2018-02-11T08:52:40.870Z,6268
2018-02-11T08:53:40.637Z,6288
2018-02-11T08:54:41.203Z,6320
2018-02-11T08:55:40.900Z,6332
2018-02-11T08:56:40.926Z,6196
2018-02-11T08:57:40.944Z,6088
2018-02-11T08:58:40.954Z,6412
2018-02-11T08:59:41.221Z,6772
2018-02-11T09:00:41.254Z,6892
2018-02-11T09:01:41.003Z,7228
2018-02-11T09:02:41.012Z,7248
2018-02-11T09:03:41.042Z,7676
2018-02-11T09:04:40.537Z,8160
2018-02-11T09:05:41.306Z,8412
2018-02-11T09:06:41.080Z,8448
2018-02-11T09:07:41.098Z,8228
2018-02-11T09:08:40.852Z,7840
2018-02-11T09:09:40.884Z,7052
2018-02-11T09:10:41.145Z,6348
2018-02-11T09:11:41.142Z,5792
2018-02-11T09:12:41.158Z,5388
2018-02-11T09:13:40.927Z,5060
2018-02-11T09:14:41.440Z,4804
2018-02-11T09:15:41.456Z,4680
2018-02-11T09:16:41.468Z,4640
2018-02-11T09:17:41.230Z,4712
2018-02-11T09:18:41.520Z,4948
2018-02-11T09:19:41.268Z,5336
2018-02-11T09:20:41.275Z,5908
2018-02-11T09:21:41.546Z,6656
2018-02-11T09:22:41.333Z,7480
2018-02-11T09:23:41.574Z,8364
2018-02-11T09:24:41.082Z,9296
2018-02-11T09:25:41.368Z,10248
2018-02-11T09:26:41.129Z,10708
2018-02-11T09:27:41.131Z,10436
2018-02-11T09:28:41.399Z,9840
2018-02-11T09:29:41.419Z,9136
2018-02-11T09:30:41.186Z,8796
2018-02-11T09:31:41.691Z,8696
2018-02-11T09:32:41.233Z,8796
2018-02-11T09:33:41.720Z,9028
2018-02-11T09:34:41.486Z,9332
2018-02-11T09:35:41.502Z,9880
2018-02-11T09:36:41.528Z,10496
2018-02-11T09:37:41.029Z,10736
2018-02-11T09:38:41.561Z,10716
2018-02-11T09:39:41.594Z,10440
2018-02-11T09:40:41.074Z,10224
2018-02-11T09:41:41.597Z,10320
2018-02-11T09:42:41.357Z,10852
2018-02-11T09:43:41.371Z,10228
2018-02-11T09:44:41.391Z,9828
2018-02-11T09:45:41.674Z,9564
2018-02-11T09:46:41.415Z,9812
2018-02-11T09:47:41.692Z,10756
2018-02-11T09:48:41.448Z,12252
2018-02-11T09:49:41.464Z,13268
2018-02-11T09:50:56.656Z,13820
2018-02-11T09:51:41.497Z,11976
2018-02-11T09:52:41.766Z,11596
2018-02-11T09:53:41.782Z,11996
2018-02-11T09:54:41.800Z,12636
2018-02-11T09:55:42.063Z,13352
2018-02-11T09:56:42.076Z,14436
2018-02-11T09:57:41.854Z,14596
2018-02-11T09:58:41.864Z,16384
2018-02-11T09:59:41.629Z,17536
2018-02-11T10:00:42.143Z,15320
2018-02-11T10:01:41.654Z,14796
2018-02-11T10:02:41.929Z,14684
2018-02-11T10:03:42.196Z,15072
2018-02-11T10:04:41.973Z,16896
2018-02-11T10:05:42.223Z,16864
2018-02-11T10:06:41.737Z,17824
2018-02-11T10:07:42.005Z,18912
2018-02-11T10:08:41.775Z,18592
2018-02-11T10:09:42.052Z,17344
2018-02-11T10:10:41.805Z,15968
2018-02-11T10:11:42.078Z,14216
2018-02-11T10:12:41.844Z,12836
2018-02-11T10:13:42.373Z,11628
2018-02-11T10:14:41.899Z,10900
2018-02-11T10:15:42.149Z,10604
2018-02-11T10:16:41.913Z,10424
2018-02-11T10:17:42.193Z,10460
2018-02-11T10:18:41.947Z,10464
2018-02-11T10:19:42.472Z,10212
2018-02-11T10:20:42.488Z,9692
2018-02-11T10:21:42.257Z,9160
2018-02-11T10:22:42.268Z,8848
2018-02-11T10:23:42.032Z,8864
2018-02-11T10:24:42.331Z,8692
2018-02-11T10:25:42.578Z,8176
2018-02-11T10:26:42.342Z,7624
2018-02-11T10:27:42.107Z,7300
2018-02-11T10:28:42.386Z,7360
2018-02-11T10:29:42.394Z,7772
2018-02-11T10:30:42.172Z,8220
2018-02-11T10:31:42.434Z,8480
2018-02-11T10:32:41.934Z,8748
2018-02-11T10:33:42.207Z,9276
2018-02-11T10:34:42.728Z,10008
2018-02-11T10:35:42.486Z,10988
2018-02-11T10:36:42.522Z,11780
2018-02-11T10:37:42.782Z,12144
2018-02-11T10:38:42.286Z,12096
2018-02-11T10:39:42.806Z,12172
2018-02-11T10:40:42.573Z,12580
2018-02-11T10:41:42.599Z,12924
2018-02-11T10:42:42.917Z,12460
2018-02-11T10:43:42.630Z,11528
2018-02-11T10:44:42.634Z,10172
2018-02-11T10:45:42.904Z,9048
2018-02-11T10:46:42.427Z,7920
2018-02-11T10:47:42.690Z,7764
2018-02-11T10:48:42.971Z,8316
2018-02-11T10:49:42.731Z,8996
2018-02-11T10:50:42.767Z,9888
2018-02-11T10:51:42.504Z,8928
2018-02-11T10:52:42.775Z,7604
2018-02-11T10:53:42.795Z,7528
2018-02-11T10:54:42.578Z,7368
2018-02-11T10:55:42.823Z,7340
2018-02-11T10:56:42.847Z,7548
2018-02-11T10:57:42.860Z,7348
2018-02-11T10:58:43.162Z,7404
2018-02-11T10:59:42.905Z,7920
2018-02-11T11:00:42.919Z,8936
2018-02-11T11:01:43.174Z,9736
2018-02-11T11:02:43.193Z,10516
2018-02-11T11:03:42.966Z,11552
2018-02-11T11:04:42.974Z,11980
2018-02-11T11:05:43.256Z,11904
2018-02-11T11:06:43.008Z,11344
2018-02-11T11:07:43.027Z,10300
2018-02-11T11:08:43.071Z,9528
2018-02-11T11:09:42.825Z,8928
2018-02-11T11:10:43.079Z,8748
2018-02-11T11:11:42.843Z,8532
2018-02-11T11:12:42.865Z,8472
2018-02-11T11:13:42.884Z,8544
2018-02-11T11:14:42.642Z,8428
2018-02-11T11:15:43.166Z,8216
2018-02-11T11:16:43.181Z,8116
2018-02-11T11:17:43.202Z,8164
2018-02-11T11:18:43.485Z,8000
2018-02-11T11:19:43.229Z,7612
2018-02-11T11:20:43.519Z,7240
2018-02-11T11:21:43.348Z,7172
2018-02-11T11:22:43.034Z,7284
2018-02-11T11:23:43.059Z,7408
2018-02-11T11:24:43.066Z,7348
2018-02-11T11:25:43.618Z,7048
2018-02-11T11:26:42.849Z,6576
2018-02-11T11:27:43.431Z,6236
2018-02-11T11:28:43.386Z,6220
2018-02-11T11:29:43.154Z,6600
2018-02-11T11:30:43.170Z,7332
2018-02-11T11:31:43.216Z,8044
2018-02-11T11:32:43.706Z,8492
2018-02-11T11:33:43.483Z,8468
2018-02-11T11:34:43.242Z,7740
2018-02-11T11:35:43.509Z,6624
2018-02-11T11:36:43.036Z,5576
2018-02-11T11:37:43.296Z,4708
2018-02-11T11:38:43.609Z,4400
2018-02-11T11:39:43.337Z,4504
2018-02-11T11:40:43.341Z,4692
2018-02-11T11:41:43.856Z,4768
2018-02-11T11:42:43.630Z,5088
2018-02-11T11:43:43.391Z,5416
2018-02-11T11:44:43.660Z,5304
2018-02-11T11:45:43.679Z,5460
2018-02-11T11:46:43.689Z,5336
2018-02-11T11:47:43.705Z,5160
2018-02-11T11:48:43.466Z,4996
2018-02-11T11:49:43.485Z,5268
2018-02-11T11:50:43.748Z,5460
2018-02-11T11:51:43.506Z,5688
2018-02-11T11:52:43.271Z,5768
2018-02-11T11:53:43.565Z,6104
2018-02-11T11:54:43.815Z,6892
2018-02-11T11:55:43.576Z,7296
2018-02-11T11:56:44.097Z,7860
2018-02-11T11:57:43.612Z,8736
2018-02-11T11:58:43.633Z,9096
2018-02-11T11:59:43.890Z,8740
2018-02-11T12:00:43.404Z,8724
2018-02-11T12:01:43.928Z,8980
2018-02-11T12:02:43.690Z,8892
2018-02-11T12:03:43.959Z,8768
2018-02-11T12:04:44.229Z,9564
2018-02-11T12:05:44.000Z,9752
2018-02-11T12:06:44.252Z,9456
2018-02-11T12:07:43.515Z,9672
2018-02-11T12:08:43.783Z,10024
2018-02-11T12:09:44.053Z,9192
2018-02-11T12:10:44.062Z,9628
2018-02-11T12:11:43.830Z,10304
2018-02-11T12:12:44.100Z,11020
2018-02-11T12:13:43.860Z,13608
2018-02-11T12:14:44.380Z,14536
2018-02-11T12:15:43.892Z,14200
2018-02-11T12:16:43.912Z,12460
2018-02-11T12:18:44.194Z,10240
2018-02-11T12:19:44.390Z,10452
2018-02-11T12:20:44.351Z,11652
2018-02-11T12:21:43.975Z,12564
2018-02-11T12:22:44.509Z,12932
2018-02-11T12:23:44.270Z,12828
2018-02-11T12:24:44.295Z,12868
2018-02-11T12:25:44.055Z,12328
2018-02-11T12:26:44.575Z,10764
2018-02-11T12:27:44.592Z,10152
2018-02-11T12:28:44.102Z,9596
2018-02-11T12:29:44.381Z,9620
2018-02-11T12:30:44.141Z,9292
2018-02-11T12:31:44.415Z,8528
2018-02-11T12:32:44.171Z,6752
2018-02-11T12:33:44.441Z,6772
2018-02-11T12:34:44.719Z,6180
2018-02-11T12:35:44.472Z,5796
2018-02-11T12:36:44.748Z,6100
2018-02-11T12:37:44.503Z,6320
2018-02-11T12:38:44.267Z,6148
2018-02-11T12:39:44.288Z,5900
2018-02-11T12:40:44.311Z,5784
2018-02-11T12:41:44.589Z,5804
2018-02-11T12:42:44.587Z,5712
2018-02-11T12:43:44.601Z,5716
2018-02-11T12:44:44.869Z,5860
2018-02-11T12:45:44.664Z,6000
2018-02-11T12:46:44.907Z,6224
2018-02-11T12:47:44.417Z,6404
2018-02-11T12:48:44.442Z,6632
2018-02-11T12:49:44.581Z,6920
2018-02-11T12:50:44.214Z,7216
2018-02-11T12:51:44.486Z,7488
2018-02-11T12:52:45.005Z,7596
2018-02-11T12:53:44.765Z,7664
2018-02-11T12:54:44.534Z,8272
2018-02-11T12:55:45.057Z,9184
2018-02-11T12:56:45.069Z,9692
2018-02-11T12:57:45.097Z,9720
2018-02-11T12:58:44.848Z,9336
2018-02-11T12:59:45.121Z,9744
2018-02-11T13:00:44.379Z,10860
2018-02-11T13:01:44.768Z,11992
2018-02-11T13:02:44.805Z,12348
2018-02-11T13:03:44.691Z,10992
2018-02-11T13:04:44.949Z,9036
2018-02-11T13:05:44.963Z,8220
2018-02-11T13:06:44.975Z,8296
2018-02-11T13:07:45.245Z,7992
2018-02-11T13:08:45.014Z,8124
2018-02-11T13:09:44.773Z,8664
2018-02-11T13:10:45.039Z,9512
2018-02-11T13:11:44.811Z,8940
2018-02-11T13:12:44.842Z,7256
2018-02-11T13:13:45.091Z,6188
2018-02-11T13:14:45.362Z,6936
2018-02-11T13:15:44.870Z,6072
2018-02-11T13:16:44.884Z,5168
2018-02-11T13:17:44.904Z,5668
2018-02-11T13:18:44.922Z,5664
2018-02-11T13:19:45.185Z,4880
2018-02-11T13:20:59.873Z,5456
2018-02-11T13:21:45.223Z,5320
2018-02-11T13:22:45.233Z,5080
2018-02-11T13:23:45.000Z,4284
2018-02-11T13:24:45.525Z,3768
2018-02-11T13:25:45.298Z,4220
2018-02-11T13:26:45.302Z,4568
2018-02-11T13:27:45.584Z,4312
2018-02-11T13:28:45.360Z,4384
2018-02-11T13:29:45.098Z,4216
2018-02-11T13:30:45.116Z,3644
2018-02-11T13:31:45.402Z,3812
2018-02-11T13:32:45.140Z,3968
2018-02-11T13:33:44.909Z,3844
2018-02-11T13:34:45.172Z,3696
2018-02-11T13:35:45.195Z,3756
2018-02-11T13:36:45.467Z,4192
2018-02-11T13:37:45.479Z,4588
2018-02-11T13:38:45.268Z,4664
2018-02-11T13:39:45.761Z,4248
2018-02-11T13:40:45.522Z,3980
2018-02-11T13:41:45.286Z,3648
2018-02-11T13:42:45.565Z,3512
2018-02-11T13:43:45.579Z,3436
2018-02-11T13:44:45.838Z,3620
2018-02-11T13:45:45.610Z,3948
2018-02-11T13:46:45.863Z,4028
2018-02-11T13:47:45.708Z,4332
2018-02-11T13:48:45.642Z,4036
2018-02-11T13:49:45.409Z,3852
2018-02-11T13:50:45.679Z,3920
2018-02-11T13:51:45.940Z,3368
2018-02-11T13:52:45.957Z,3144
2018-02-11T13:53:45.470Z,2864
2018-02-11T13:54:45.484Z,2952
2018-02-11T13:55:45.752Z,2904